Latest Weather Observations for Newcastle Nobbys

IDN60801

Issued at 10:02 pm EST Friday 28 April 2017 (issued every 30 minutes, with the page automatically refreshed every 10 minutes)

About weather observations | Map of weather stations | Latest weather observations for NSW | Other Formats
Station Details ID: 061055 Name: NEWCASTLE NOBBYS SIGNAL STATION AWS Lat: -32.92 Lon: 151.80 Height: 33.0 m
Data from the previous 72 hours. | See also: Recent months at Newcastle Nobbys
Date/Time
EST
Temp
°C
App
Temp
°C
Dew
Point
°C
Rel
Hum
%
Delta-T
°C
Wind Press
QNH
hPa
Press
MSL
hPa
Rain since
9am
mm
Dir  Spd
km/h
Gust
km/h
Spd
kts
Gust
kts
28/10:00pm 14.8 13.1 11.2 79 1.9 W 11 15 6 8 - - 0.0
28/09:30pm 15.0 13.3 11.2 78 2.0 W 11 15 6 8 - - 0.0
28/09:00pm 15.4 13.4 11.6 78 2.1 W 13 15 7 8 - - 0.0
28/08:30pm 15.6 13.9 11.2 75 2.4 W 11 13 6 7 - - 0.0
28/08:00pm 16.3 14.4 10.6 69 3.0 WSW 11 13 6 7 - - 0.0
28/07:30pm 16.3 15.1 11.5 73 2.6 WSW 9 11 5 6 - - 0.0
28/07:00pm 17.0 15.5 10.4 65 3.5 WSW 9 13 5 7 - - 0.0
28/06:30pm 17.9 15.5 10.0 60 4.2 SSW 13 22 7 12 - - 0.0
28/06:00pm 17.9 14.7 10.0 60 4.2 SSW 17 24 9 13 - - 0.0
28/05:30pm 17.9 14.3 10.0 60 4.2 SSW 19 28 10 15 - - 0.0
28/05:00pm 18.0 14.6 10.6 62 4.0 S 19 26 10 14 - - 0.0
28/04:30pm 18.0 14.2 9.9 59 4.3 S 20 26 11 14 - - 0.0
28/04:00pm 18.2 14.0 9.8 58 4.4 S 22 28 12 15 - - 0.0
28/03:30pm 18.3 14.5 9.9 58 4.5 SSW 20 30 11 16 - - 0.0
28/03:00pm 18.1 12.9 8.9 55 4.8 S 26 32 14 17 - - 0.0
28/02:30pm 17.9 13.0 9.8 59 4.3 S 26 32 14 17 - - 0.0
28/02:00pm 17.6 12.9 10.7 64 3.7 SSW 26 35 14 19 - - 0.0
28/01:30pm 18.1 13.7 11.7 66 3.5 SSW 26 35 14 19 - - 0.0
28/01:00pm 18.1 14.1 11.7 66 3.5 SSW 24 37 13 20 - - 0.0
28/12:30pm 17.6 13.4 11.2 66 3.5 SSW 24 35 13 19 - - 0.0
28/12:00pm 17.8 13.5 12.0 69 3.2 SSW 26 35 14 19 - - 0.0
28/11:30am 17.6 13.9 11.4 67 3.4 SSW 22 39 12 21 - - 0.0
28/11:00am 17.5 13.7 11.1 66 3.5 SSW 22 37 12 20 - - 0.0
28/10:30am 17.3 13.5 11.1 67 3.3 SSW 22 30 12 16 - - 0.0
28/10:00am 16.8 13.3 10.2 65 3.5 SW 19 26 10 14 - - 0.0
28/09:30am 16.4 12.5 9.6 64 3.5 SW 20 32 11 17 - - 0.0
28/09:00am 15.9 12.6 9.6 66 3.3 SW 17 30 9 16 - - 4.4
28/08:30am 15.4 11.6 8.9 65 3.3 SW 19 30 10 16 - - 4.4
28/08:00am 14.8 10.8 9.0 68 3.0 SW 20 35 11 19 - - 4.4
28/07:30am 14.2 10.3 8.6 69 2.8 SW 19 30 10 16 - - 4.4
28/07:00am 13.9 10.0 8.5 70 2.7 SW 19 30 10 16 - - 4.4
28/06:30am 14.2 10.4 9.2 72 2.6 SW 19 32 10 17 - - 4.4
28/06:00am 14.7 10.4 9.3 70 2.8 SW 22 39 12 21 - - 4.4
28/05:30am 14.4 10.6 9.0 70 2.7 SW 19 33 10 18 - - 4.4
28/05:00am 14.7 10.7 9.1 69 2.9 SW 20 33 11 18 - - 4.4
28/04:30am 14.9 10.7 9.7 71 2.7 SW 22 39 12 21 - - 4.4
28/04:00am 15.1 10.9 9.9 71 2.7 SW 22 33 12 18 - - 4.4
28/03:30am 15.0 10.5 10.0 72 2.6 SW 24 39 13 21 - - 4.4
28/03:00am 14.4 9.7 10.8 79 1.9 SW 26 43 14 23 - - 4.4
28/02:30am 14.7 9.9 11.5 81 1.7 SW 28 43 15 23 - - 4.4
28/02:00am 14.2 10.4 11.2 82 1.6 SW 22 41 12 22 - - 4.4
28/01:30am 15.0 11.2 11.2 78 2.0 SW 22 35 12 19 - - 4.4
28/01:00am 14.9 12.0 11.1 78 2.0 WSW 17 28 9 15 - - 4.2
28/12:30am 14.4 11.2 11.2 81 1.7 WSW 19 30 10 16 - - 4.2
28/12:00am 14.5 11.1 10.7 78 2.0 WSW 19 30 10 16 - - 4.2
 
Date/Time
EST
Temp
°C
App
Temp
°C
Dew
Point
°C
Rel
Hum
%
Delta-T
°C
Wind Press
QNH
hPa
Press
MSL
hPa
Rain since
9am
mm
Dir  Spd
km/h
Gust
km/h
Spd
kts
Gust
kts
27/11:30pm 14.7 11.8 11.1 79 1.9 WSW 17 24 9 13 - - 4.0
27/11:00pm 14.9 12.1 11.3 79 1.9 WSW 17 28 9 15 - - 3.6
27/10:30pm 14.8 11.6 11.9 83 1.6 SW 20 33 11 18 - - 3.6
27/10:00pm 14.4 12.8 11.4 82 1.6 WSW 11 19 6 10 - - 1.8
27/09:30pm 14.7 12.3 11.5 81 1.7 WSW 15 24 8 13 - - 1.4
27/09:00pm 15.1 11.9 11.3 78 2.0 WSW 19 28 10 15 - - 1.0
27/08:30pm 15.5 12.0 10.9 74 2.4 SW 20 32 11 17 - - 0.2
27/08:15pm 15.6 12.2 11.4 76 2.3 SW 20 39 11 21 - - 0.0
27/08:00pm 15.5 13.7 10.7 73 2.5 WSW 11 17 6 9 - - 0.0
27/07:30pm 16.0 13.0 10.5 70 2.9 W 17 20 9 11 - - 0.0
27/07:00pm 16.1 12.7 10.4 69 3.0 W 19 22 10 12 - - 0.0
27/06:30pm 16.4 14.1 10.3 67 3.2 WSW 13 20 7 11 - - 0.0
27/06:00pm 16.4 13.9 9.6 64 3.5 SW 13 20 7 11 - - 0.0
27/05:30pm 16.6 13.4 10.0 65 3.5 SW 17 24 9 13 - - 0.0
27/05:00pm 16.9 14.0 9.8 63 3.7 SW 15 22 8 12 - - 0.0
27/04:30pm 17.1 13.8 9.5 61 4.0 SW 17 28 9 15 - - 0.0
27/04:00pm 17.5 13.7 8.9 57 4.5 SW 19 28 10 15 - - 0.0
27/03:30pm 17.3 13.0 9.2 59 4.2 SSW 22 32 12 17 - - 0.0
27/03:00pm 17.3 13.3 9.0 58 4.3 SSW 20 32 11 17 - - 0.0
27/02:30pm 17.0 11.6 7.9 55 4.6 S 26 35 14 19 - - 0.0
27/02:00pm 17.0 12.2 8.7 58 4.3 S 24 33 13 18 - - 0.0
27/01:30pm 17.3 12.8 8.7 57 4.4 SSW 22 30 12 16 - - 0.0
27/01:00pm 16.8 12.9 8.5 58 4.2 SSW 19 28 10 15 - - 0.0
27/12:30pm 17.4 14.5 8.0 54 4.8 SW 13 20 7 11 - - 0.0
27/12:00pm 16.1 12.5 6.8 54 4.6 SW 15 24 8 13 - - 0.0
27/11:30am 17.1 12.9 7.5 53 4.8 SW 19 28 10 15 - - 0.0
27/11:00am 17.0 12.6 7.4 53 4.8 SW 20 32 11 17 - - 0.0
27/10:30am 17.1 14.4 10.5 65 3.5 WNW 15 26 8 14 - - 0.0
27/10:00am 14.4 11.3 9.0 70 2.7 WNW 15 20 8 11 - - 0.0
27/09:30am 13.7 10.4 9.6 76 2.1 NW 17 20 9 11 - - 0.0
27/09:00am 13.1 9.3 9.0 76 2.1 WNW 19 24 10 13 - - 0.6
27/08:30am 12.6 9.3 9.4 81 1.6 WNW 17 20 9 11 - - 0.6
27/08:00am 12.1 8.1 8.9 81 1.6 WNW 20 26 11 14 - - 0.6
27/07:30am 12.1 7.7 9.1 82 1.5 WNW 22 28 12 15 - - 0.6
27/07:00am 11.8 8.0 9.0 83 1.4 WNW 19 24 10 13 - - 0.6
27/06:30am 11.4 7.4 9.0 85 1.2 WNW 20 28 11 15 - - 0.6
27/06:00am 11.4 7.0 9.0 85 1.2 WNW 22 28 12 15 - - 0.6
27/05:30am 11.4 7.0 8.8 84 1.3 W 22 28 12 15 - - 0.6
27/05:00am 11.5 7.0 8.7 83 1.4 WNW 22 28 12 15 - - 0.6
27/04:30am 11.5 7.4 8.5 82 1.5 WNW 20 28 11 15 - - 0.6
27/04:00am 11.8 7.4 8.8 82 1.5 WNW 22 32 12 17 - - 0.6
27/03:30am 11.9 7.4 8.7 81 1.6 WNW 22 30 12 16 - - 0.6
27/03:00am 11.9 7.1 8.7 81 1.6 WNW 24 32 13 17 - - 0.6
27/02:30am 12.2 8.1 8.5 78 1.8 WNW 20 28 11 15 - - 0.6
27/02:00am 12.6 8.0 8.3 75 2.1 WNW 22 28 12 15 - - 0.6
27/01:30am 12.7 8.1 8.0 73 2.3 WNW 22 32 12 17 - - 0.6
27/01:00am 12.9 7.5 8.2 73 2.3 WNW 26 33 14 18 - - 0.6
27/12:30am 13.0 6.9 8.3 73 2.3 WNW 30 37 16 20 - - 0.6
27/12:00am 13.3 8.1 8.8 74 2.3 WNW 26 33 14 18 - - 0.6
 
Date/Time
EST
Temp
°C
App
Temp
°C
Dew
Point
°C
Rel
Hum
%
Delta-T
°C
Wind Press
QNH
hPa
Press
MSL
hPa
Rain since
9am
mm
Dir  Spd
km/h
Gust
km/h
Spd
kts
Gust
kts
26/11:30pm 13.2 8.7 8.5 73 2.3 WNW 22 30 12 16 - - 0.6
26/11:00pm 13.2 8.7 8.7 74 2.3 WNW 22 32 12 17 - - 0.6
26/10:30pm 13.1 8.3 8.8 75 2.2 WNW 24 30 13 16 - - 0.6
26/10:00pm 12.9 7.6 8.6 75 2.1 WNW 26 35 14 19 - - 0.6
26/09:30pm 13.1 7.1 8.8 75 2.2 WNW 30 41 16 22 - - 0.6
26/09:00pm 13.4 7.3 8.3 71 2.5 NW 30 39 16 21 - - 0.6
26/08:30pm 14.0 9.1 8.6 70 2.7 NW 24 35 13 19 - - 0.6
26/08:00pm 14.4 7.8 7.7 64 3.3 WNW 32 43 17 23 - - 0.6
26/07:30pm 14.6 7.1 8.1 65 3.3 WNW 37 46 20 25 - - 0.6
26/07:00pm 14.2 7.8 9.2 72 2.6 WNW 33 46 18 25 - - 0.6
26/06:30pm 13.9 9.4 11.4 85 1.3 NW 26 35 14 19 - - 0.6
26/06:00pm 14.1 9.2 11.4 84 1.4 NW 28 39 15 21 - - 0.6
26/05:30pm 14.6 11.2 11.2 80 1.8 WNW 20 28 11 15 - - 0.6
26/05:00pm 14.9 9.4 10.7 76 2.2 WNW 30 39 16 21 - - 0.6
26/04:31pm 16.6 11.5 10.7 68 3.1 WSW 28 46 15 25 - - 0.0
26/04:30pm 16.6 11.1 10.7 68 3.1 WSW 30 46 16 25 - - 0.0
26/04:19pm 17.0 9.6 11.3 69 3.1 WSW 41 69 22 37 - - 0.0
26/04:08pm 18.7 10.0 9.8 56 4.7 WSW 46 76 25 41 - - 0.0
26/04:06pm 18.9 10.7 9.7 55 4.9 WSW 43 76 23 41 - - 0.0
26/04:05pm 19.4 11.6 9.6 53 5.2 WSW 41 76 22 41 - - 0.0
26/04:00pm 21.4 13.8 9.0 45 6.6 W 39 57 21 31 - - 0.0
26/03:30pm 23.6 17.4 9.9 42 7.5 WNW 33 52 18 28 - - 0.0
26/03:10pm 23.8 17.3 9.0 39 8.0 NW 33 54 18 29 - - 0.0
26/03:00pm 23.5 16.9 8.4 38 8.0 WNW 33 46 18 25 - - 0.0
26/02:30pm 23.4 19.9 10.8 45 7.0 WNW 20 32 11 17 - - 0.0
26/02:00pm 24.7 20.1 12.3 46 7.1 WNW 28 41 15 22 - - 0.0
26/01:30pm 24.6 19.2 12.2 46 7.1 WNW 32 50 17 27 - - 0.0
26/01:00pm 24.1 18.8 13.0 50 6.4 WNW 33 50 18 27 - - 0.0
26/12:30pm 23.8 18.7 13.6 52 6.0 NW 33 50 18 27 - - 0.0
26/12:00pm 23.6 21.0 14.9 58 5.2 WNW 22 32 12 17 - - 0.0
26/11:30am 22.9 19.1 14.7 60 4.9 NW 28 35 15 19 - - 0.0
26/11:00am 22.4 20.1 15.7 66 4.0 NW 22 33 12 18 - - 0.0
26/10:30am 22.3 19.9 16.3 69 3.6 NW 24 33 13 18 - - 0.0
26/10:00am 21.3 18.7 16.0 72 3.2 WNW 24 33 13 18 - - 0.0
26/09:30am 20.8 18.0 16.4 76 2.7 NW 26 35 14 19 - - 0.0
26/09:00am 20.8 20.0 17.0 79 2.3 WNW 17 24 9 13 - - 6.6
26/08:30am 19.8 18.6 17.0 84 1.7 NW 19 24 10 13 - - 6.6
26/08:00am 19.0 19.4 16.4 85 1.6 NW 9 13 5 7 - - 6.6
26/07:30am 19.0 19.1 16.6 86 1.4 NW 11 15 6 8 - - 6.6
26/07:00am 18.6 18.7 16.6 88 1.2 NW 11 17 6 9 - - 6.6
26/06:30am 18.2 17.5 16.5 90 1.0 NW 15 19 8 10 - - 6.6
26/06:00am 18.3 18.0 16.5 89 1.1 NW 13 19 7 10 - - 6.6
26/05:30am 18.4 17.4 16.6 89 1.1 NW 17 22 9 12 - - 6.6
26/05:00am 18.6 17.2 16.9 90 1.0 NW 20 30 11 16 - - 6.6
26/04:30am 18.6 17.4 17.1 91 0.9 NW 19 24 10 13 - - 6.6
26/04:00am 18.8 17.8 17.5 92 0.8 NW 19 28 10 15 - - 6.6
26/03:30am 18.8 17.9 17.8 94 0.6 NW 19 24 10 13 - - 6.6
26/03:00am 18.7 18.2 17.9 95 0.5 WNW 17 22 9 12 - - 6.6
26/02:30am 18.6 18.9 17.8 95 0.5 NW 13 20 7 11 - - 6.6
26/02:00am 18.5 19.9 17.7 95 0.5 NW 7 11 4 6 - - 6.6
26/01:30am 18.8 19.9 18.1 96 0.4 NNE 9 17 5 9 - - 6.6
26/01:00am 18.6 20.1 18.1 97 0.3 N 7 13 4 7 - - 6.6
26/12:30am 18.4 20.5 18.1 98 0.2 N 4 6 2 3 - - 6.6
26/12:00am 18.6 20.2 18.3 98 0.2 NW 7 13 4 7 - - 6.6
 
Date/Time
EST
Temp
°C
App
Temp
°C
Dew
Point
°C
Rel
Hum
%
Delta-T
°C
Wind Press
QNH
hPa
Press
MSL
hPa
Rain since
9am
mm
Dir  Spd
km/h
Gust
km/h
Spd
kts
Gust
kts
25/11:30pm 18.8 19.7 18.5 98 0.2 WNW 11 15 6 8 - - 6.4
25/11:00pm 18.8 19.7 18.5 98 0.2 NNW 11 15 6 8 - - 6.4
25/10:30pm 19.0 17.9 18.7 98 0.2 NNW 22 28 12 15 - - 6.4

Other Formats:

Comma delimited format used in spreadsheet applications
http://www.bom.gov.au/fwo/IDN60801/IDN60801.94774.axf

JavaScript Object Notation format (JSON) in row-major order
http://www.bom.gov.au/fwo/IDN60801/IDN60801.94774.json